Time;durP1;ratioP1;P1;durP2;ratioP2;P2;SDS_P1;SDS_P2;PMS_P1;PMS_P2;Temp;Humidity;BMP_temperature;BMP_pressure;BME280_temperature;BME280_humidity;BME280_pressure;Samples;Min_cycle;Max_cycle;Signal;HPM_P1;HPM_P2
2023/04/08 00:02:15;;;;;;;;;9.00;6.33;;;;;12.93;100.00;102016.38;5025055;28;45252;-72
2023/04/08 00:04:41;;;;;;;;;10.00;9.33;;;;;12.92;100.00;102020.09;5046916;28;45491;-72
2023/04/08 00:07:06;;;;;;;;;10.67;9.67;;;;;12.96;100.00;102033.31;5035952;28;46190;-72
2023/04/08 00:09:32;;;;;;;;;11.00;8.00;;;;;12.88;100.00;102024.94;5027525;28;45438;-73
2023/04/08 00:11:57;;;;;;;;;12.00;10.00;;;;;12.79;100.00;102015.69;5045166;28;45828;-72
2023/04/08 00:14:23;;;;;;;;;11.00;8.67;;;;;12.70;100.00;102015.63;5028130;28;45503;-72
2023/04/08 00:16:48;;;;;;;;;6.33;5.33;;;;;12.72;100.00;102017.22;5043157;28;46835;-73
2023/04/08 00:19:13;;;;;;;;;11.00;8.00;;;;;12.69;100.00;102003.84;5021747;28;45490;-72
2023/04/08 00:21:39;;;;;;;;;11.33;10.00;;;;;12.71;100.00;102017.38;5042999;28;45445;-73
2023/04/08 00:24:05;;;;;;;;;9.33;8.00;;;;;12.62;100.00;102021.72;5026165;28;45478;-72
2023/04/08 00:26:31;;;;;;;;;9.00;7.00;;;;;12.69;100.00;102024.81;5024763;28;47290;-73
2023/04/08 00:28:56;;;;;;;;;11.67;9.00;;;;;12.57;100.00;102025.81;5048265;28;45178;-73
2023/04/08 00:31:22;;;;;;;;;8.00;8.00;;;;;12.53;100.00;102024.38;5048306;28;45435;-73
2023/04/08 00:33:47;;;;;;;;;12.33;11.00;;;;;12.44;100.00;102007.78;5054707;28;45252;-73
2023/04/08 00:36:12;;;;;;;;;9.33;8.00;;;;;12.46;100.00;102024.91;5028931;28;48220;-72
2023/04/08 00:38:38;;;;;;;;;11.00;9.00;;;;;12.44;100.00;102024.16;5036167;28;45312;-73
2023/04/08 00:41:03;;;;;;;;;8.67;4.67;;;;;12.30;100.00;102029.91;5029570;28;45394;-73
2023/04/08 00:43:29;;;;;;;;;10.00;7.67;;;;;12.18;100.00;102025.47;5047361;28;45478;-73
2023/04/08 00:45:54;;;;;;;;;6.33;5.67;;;;;12.22;100.00;102036.97;5027639;28;47943;-72
2023/04/08 00:48:20;;;;;;;;;9.00;8.00;;;;;12.21;100.00;102032.50;5027194;28;45451;-72
2023/04/08 00:50:46;;;;;;;;;8.33;7.00;;;;;12.31;100.00;102034.34;5052642;28;45343;-72
2023/04/08 00:53:16;;;;;;;;;9.33;9.33;;;;;12.31;100.00;102025.31;5043685;28;45466;-72
2023/04/08 00:55:41;;;;;;;;;11.00;9.67;;;;;12.26;100.00;102039.34;5032641;28;47114;-72
2023/04/08 00:58:07;;;;;;;;;11.00;10.25;;;;;12.19;100.00;102038.13;5045623;28;45165;-72
2023/04/08 01:00:34;;;;;;;;;8.67;8.67;;;;;12.21;100.00;102040.69;5028925;28;45489;-72
2023/04/08 01:03:34;;;;;;;;;6.33;6.33;;;;;12.20;100.00;102034.38;5034439;28;45469;-72
2023/04/08 01:06:17;;;;;;;;;9.33;8.00;;;;;12.14;100.00;102040.34;5033270;28;45288;-72
2023/04/08 01:08:44;;;;;;;;;10.00;8.33;;;;;12.12;100.00;102030.56;5040886;28;45408;-73
2023/04/08 01:11:12;;;;;;;;;9.33;7.67;;;;;12.23;100.00;102044.16;5042556;28;45360;-72
2023/04/08 01:13:39;;;;;;;;;9.33;7.33;;;;;12.04;100.00;102033.94;5028951;28;45484;-72
2023/04/08 01:16:09;;;;;;;;;10.00;9.00;;;;;12.01;100.00;102039.63;5039756;28;46217;-72
2023/04/08 01:18:35;;;;;;;;;14.25;11.50;;;;;11.98;100.00;102032.56;5026242;28;45281;-72
2023/04/08 01:21:03;;;;;;;;;10.00;8.00;;;;;11.95;100.00;102035.56;5033258;28;45621;-72
2023/04/08 01:23:40;;;;;;;;;10.00;10.00;;;;;11.98;100.00;102029.00;5031181;28;45688;-72
2023/04/08 01:26:05;;;;;;;;;10.75;10.00;;;;;11.97;100.00;102038.16;5023474;28;47310;-72
2023/04/08 01:28:34;;;;;;;;;11.50;9.75;;;;;11.96;100.00;102039.16;5038966;28;45399;-72
2023/04/08 01:31:01;;;;;;;;;12.00;7.50;;;;;11.94;100.00;102030.22;5025827;28;45467;-72
2023/04/08 01:33:27;;;;;;;;;10.00;9.00;;;;;11.95;100.00;102035.56;5057366;28;45417;-72
2023/04/08 01:35:55;;;;;;;;;9.67;7.00;;;;;11.88;100.00;102038.91;5041473;28;45541;-72
2023/04/08 01:38:24;;;;;;;;;11.75;9.75;;;;;11.79;100.00;102034.19;5056489;28;45320;-72
2023/04/08 01:40:52;;;;;;;;;15.00;11.00;;;;;11.75;100.00;102025.44;5026040;28;45268;-72
2023/04/08 01:43:18;;;;;;;;;11.75;10.00;;;;;11.85;100.00;102037.28;5041950;28;45594;-70
2023/04/08 01:45:45;;;;;;;;;13.67;10.33;;;;;11.85;100.00;102031.84;5038607;28;45389;-71
2023/04/08 01:48:14;;;;;;;;;9.00;8.00;;;;;11.88;100.00;102038.91;5023911;28;45450;-71
2023/04/08 01:50:44;;;;;;;;;12.33;10.67;;;;;11.85;100.00;102030.97;5047261;28;45316;-71
2023/04/08 01:53:11;;;;;;;;;12.67;10.00;;;;;11.68;100.00;102025.03;5027694;28;45481;-72
2023/04/08 01:55:39;;;;;;;;;7.25;5.00;;;;;11.77;100.00;102031.59;5048433;28;45366;-72
2023/04/08 01:58:07;;;;;;;;;11.00;10.67;;;;;11.64;100.00;102037.16;5031370;28;45236;-73
2023/04/08 02:00:34;;;;;;;;;9.00;9.00;;;;;11.71;100.00;102035.66;5047231;28;45478;-72
2023/04/08 02:03:01;;;;;;;;;14.00;10.33;;;;;11.71;100.00;102045.69;5034100;28;45405;-71
2023/04/08 02:05:27;;;;;;;;;10.00;10.00;;;;;11.63;100.00;102034.53;5044840;28;45489;-72
2023/04/08 02:07:52;;;;;;;;;15.00;12.25;;;;;11.58;100.00;102034.06;5021322;28;45461;-72
2023/04/08 02:10:18;;;;;;;;;14.25;13.00;;;;;11.59;100.00;102033.94;5026667;28;45507;-71
2023/04/08 02:12:43;;;;;;;;;16.50;13.00;;;;;11.68;100.00;102035.94;5041842;28;45360;-72
2023/04/08 02:15:11;;;;;;;;;15.25;14.50;;;;;11.50;100.00;102006.59;5043662;28;47125;-72
2023/04/08 02:17:42;;;;;;;;;13.33;13.33;;;;;11.59;100.00;102046.69;5024986;28;45692;-72
2023/04/08 02:20:36;;;;;;;;;11.33;9.33;;;;;11.57;100.00;102046.78;5049724;28;45445;-72
2023/04/08 02:23:04;;;;;;;;;14.50;12.00;;;;;11.63;100.00;102039.97;5044226;28;45518;-72
2023/04/08 02:25:33;;;;;;;;;15.33;11.00;;;;;11.45;100.00;102030.59;5048268;28;45308;-71
2023/04/08 02:28:01;;;;;;;;;16.33;11.00;;;;;11.48;100.00;102039.34;5050266;28;45331;-72
2023/04/08 02:30:30;;;;;;;;;18.25;13.00;;;;;11.40;100.00;102033.66;5022711;28;45418;-72
2023/04/08 02:32:57;;;;;;;;;13.50;13.25;;;;;11.25;100.00;102045.78;5034086;28;45439;-72
2023/04/08 02:35:23;;;;;;;;;13.50;10.00;;;;;11.26;100.00;102029.31;5021761;28;48214;-72
2023/04/08 02:37:49;;;;;;;;;13.50;10.00;;;;;11.31;100.00;102028.97;5042937;28;45277;-71
2023/04/08 02:40:32;;;;;;;;;14.25;10.75;;;;;11.37;100.00;102038.50;5031123;28;45432;-71
2023/04/08 02:42:58;;;;;;;;;13.25;13.25;;;;;11.36;100.00;102032.19;5048413;28;45337;-71
2023/04/08 02:45:28;;;;;;;;;15.50;14.00;;;;;11.30;100.00;102038.13;5043059;28;46541;-72
2023/04/08 02:47:54;;;;;;;;;17.67;13.67;;;;;11.26;100.00;102032.03;5047770;28;45377;-71
2023/04/08 02:50:19;;;;;;;;;15.50;12.50;;;;;11.27;100.00;102031.06;5028098;28;45577;-72
2023/04/08 02:52:45;;;;;;;;;17.50;15.75;;;;;11.27;100.00;102041.06;5034129;28;45540;-73
2023/04/08 02:55:10;;;;;;;;;19.25;14.50;;;;;11.23;100.00;102037.75;5042618;28;46683;-71
2023/04/08 02:57:38;;;;;;;;;13.00;11.75;;;;;11.22;100.00;102036.00;5033145;28;45196;-72
2023/04/08 03:00:04;;;;;;;;;17.50;15.25;;;;;11.25;100.00;102035.75;5018787;28;45651;-72
2023/04/08 03:02:30;;;;;;;;;18.25;16.50;;;;;11.27;100.00;102035.63;5037932;28;45292;-72
2023/04/08 03:04:55;;;;;;;;;18.50;16.00;;;;;11.22;100.00;102041.44;5040771;28;45442;-72
2023/04/08 03:07:20;;;;;;;;;16.25;15.50;;;;;11.18;100.00;102039.94;5022082;28;45456;-72
2023/04/08 03:09:46;;;;;;;;;13.50;13.50;;;;;11.21;100.00;102042.44;5040330;28;45445;-72
2023/04/08 03:12:11;;;;;;;;;19.00;13.75;;;;;11.08;100.00;102048.97;5040456;28;45457;-72
2023/04/08 03:14:36;;;;;;;;;17.75;14.50;;;;;10.94;100.00;102031.00;5023858;28;52993;-72
2023/04/08 03:17:02;;;;;;;;;27.25;21.00;;;;;10.97;100.00;102040.75;5020275;28;45397;-72
2023/04/08 03:19:27;;;;;;;;;13.75;12.50;;;;;10.99;100.00;102041.50;5043411;28;45463;-72
2023/04/08 03:21:52;;;;;;;;;18.50;16.75;;;;;10.97;100.00;102041.63;5044409;28;45576;-72
2023/04/08 03:24:18;;;;;;;;;17.50;15.00;;;;;10.96;100.00;102039.06;5025013;28;46625;-72
2023/04/08 03:26:43;;;;;;;;;15.25;14.50;;;;;10.95;100.00;102042.75;5016696;28;45625;-72
2023/04/08 03:29:08;;;;;;;;;13.00;12.00;;;;;10.91;100.00;102042.09;5024580;28;45341;-72
2023/04/08 03:31:34;;;;;;;;;16.50;15.75;;;;;10.93;100.00;102040.16;5021781;28;46208;-72
2023/04/08 03:34:00;;;;;;;;;18.25;15.00;;;;;10.90;100.00;102040.38;5046878;28;45366;-72
2023/04/08 03:36:26;;;;;;;;;14.75;12.75;;;;;10.78;100.00;102042.19;5042905;28;45254;-72
2023/04/08 03:38:51;;;;;;;;;19.50;17.00;;;;;10.72;100.00;102031.81;5045801;28;45390;-73
2023/04/08 03:41:16;;;;;;;;;18.00;16.75;;;;;10.80;100.00;102040.25;5046177;28;45462;-72
2023/04/08 03:43:42;;;;;;;;;17.25;15.50;;;;;10.72;100.00;102020.94;5024308;28;47537;-73
2023/04/08 03:46:07;;;;;;;;;20.25;16.50;;;;;10.81;100.00;102041.94;5044087;28;45400;-72
2023/04/08 03:48:32;;;;;;;;;22.75;15.75;;;;;10.77;100.00;102039.59;5024261;28;45500;-72
2023/04/08 03:50:58;;;;;;;;;15.00;14.00;;;;;10.81;100.00;102043.81;5032811;28;45318;-72
2023/04/08 03:53:23;;;;;;;;;16.75;12.25;;;;;10.87;100.00;102046.94;5019907;28;47204;-72
2023/04/08 03:55:51;;;;;;;;;15.75;13.50;;;;;10.79;100.00;102049.38;5045699;28;45304;-72
2023/04/08 03:58:17;;;;;;;;;16.75;14.00;;;;;10.73;100.00;102055.28;5023385;28;45419;-72
2023/04/08 04:00:42;;;;;;;;;24.00;17.00;;;;;10.64;100.00;102058.69;5048306;28;45434;-72
2023/04/08 04:03:09;;;;;;;;;15.25;14.00;;;;;10.56;100.00;102055.69;5030738;28;46690;-72
2023/04/08 04:05:35;;;;;;;;;15.75;15.75;;;;;10.47;100.00;102050.94;5043950;28;45440;-72
2023/04/08 04:08:01;;;;;;;;;18.50;17.00;;;;;10.45;100.00;102044.75;5022653;28;45505;-72
2023/04/08 04:10:26;;;;;;;;;24.75;18.75;;;;;10.64;100.00;102049.69;5046281;28;45161;-72
2023/04/08 04:12:51;;;;;;;;;17.75;13.50;;;;;10.65;100.00;102046.84;5038599;28;45528;-72
2023/04/08 04:15:17;;;;;;;;;15.75;13.75;;;;;10.71;100.00;102053.66;5045882;28;45375;-72
2023/04/08 04:17:42;;;;;;;;;21.25;17.00;;;;;10.71;100.00;102053.66;5037680;28;45427;-72
2023/04/08 04:20:08;;;;;;;;;23.25;21.25;;;;;10.69;100.00;102045.63;5024858;28;45590;-72
2023/04/08 04:22:33;;;;;;;;;15.50;13.50;;;;;10.66;100.00;102036.84;5024459;28;46991;-72
2023/04/08 04:24:59;;;;;;;;;14.25;13.25;;;;;10.72;100.00;102050.84;5051911;28;45212;-72
2023/04/08 04:27:24;;;;;;;;;16.50;16.50;;;;;10.63;100.00;102056.97;5049588;28;45358;-72
2023/04/08 04:29:49;;;;;;;;;22.00;17.00;;;;;10.43;100.00;102041.31;5053910;28;45410;-72
2023/04/08 04:32:15;;;;;;;;;19.25;18.25;;;;;10.48;100.00;102060.84;5048924;28;45497;-72
2023/04/08 04:34:40;;;;;;;;;17.75;14.50;;;;;10.42;100.00;102047.72;5026903;28;45336;-72
2023/04/08 04:37:06;;;;;;;;;19.00;14.00;;;;;10.39;100.00;102048.81;5019075;28;45525;-71
2023/04/08 04:39:31;;;;;;;;;20.50;15.25;;;;;10.38;100.00;102046.22;5031999;28;45581;-71
2023/04/08 04:41:56;;;;;;;;;17.00;15.50;;;;;10.41;100.00;102070.44;5040915;28;45426;-72
2023/04/08 04:44:22;;;;;;;;;19.50;17.50;;;;;10.39;100.00;102069.69;5028836;28;45300;-71
2023/04/08 04:46:47;;;;;;;;;11.25;10.75;;;;;10.43;100.00;102073.91;5021264;28;45517;-72
2023/04/08 04:49:12;;;;;;;;;17.75;15.25;;;;;10.43;100.00;102073.91;5054883;28;45325;-72
2023/04/08 04:51:38;;;;;;;;;16.75;14.00;;;;;10.49;100.00;102071.59;5044978;28;45427;-72
2023/04/08 04:54:03;;;;;;;;;17.75;17.25;;;;;10.50;100.00;102077.91;5053037;28;45335;-70
2023/04/08 04:56:28;;;;;;;;;16.75;16.75;;;;;10.48;100.00;102088.88;5040844;28;45668;-72
2023/04/08 04:58:54;;;;;;;;;18.25;17.75;;;;;10.47;100.00;102075.41;5036384;28;45592;-71
2023/04/08 05:01:19;;;;;;;;;18.75;17.75;;;;;10.45;100.00;102094.53;5024018;28;47984;-73
2023/04/08 05:03:44;;;;;;;;;20.75;15.00;;;;;10.47;100.00;102097.16;5025202;28;45443;-74
2023/04/08 05:06:10;;;;;;;;;19.75;16.50;;;;;10.46;100.00;102089.97;5043645;28;45913;-73
2023/04/08 05:08:36;;;;;;;;;19.50;17.00;;;;;10.45;100.00;102082.81;5044693;28;45517;-72
2023/04/08 05:11:01;;;;;;;;;21.50;15.25;;;;;10.38;100.00;102104.13;5041936;28;46293;-71
2023/04/08 05:13:28;;;;;;;;;19.25;15.25;;;;;10.25;100.00;102097.00;5044914;28;45402;-71
2023/04/08 05:15:53;;;;;;;;;18.50;15.00;;;;;10.22;100.00;102094.53;5041891;28;45483;-71
2023/04/08 05:18:19;;;;;;;;;21.00;19.75;;;;;10.06;100.00;102081.19;5046506;28;45229;-72
2023/04/08 05:20:44;;;;;;;;;21.50;17.25;;;;;10.10;100.00;102098.97;5044106;28;45439;-72
2023/04/08 05:23:10;;;;;;;;;19.75;18.50;;;;;10.09;100.00;102081.81;5046948;28;45347;-72
2023/04/08 05:25:35;;;;;;;;;22.25;17.75;;;;;10.20;100.00;102091.94;5023248;28;46302;-72
2023/04/08 05:28:01;;;;;;;;;17.50;15.75;;;;;10.28;100.00;102094.06;5034935;28;45463;-72
2023/04/08 05:30:26;;;;;;;;;23.25;19.25;;;;;10.38;100.00;102104.13;5028878;28;45315;-72
2023/04/08 05:32:52;;;;;;;;;18.25;17.25;;;;;10.32;100.00;102109.16;5028344;28;45317;-72
2023/04/08 05:35:17;;;;;;;;;20.25;18.00;;;;;10.43;100.00;102122.81;5026240;28;45419;-72
2023/04/08 05:37:42;;;;;;;;;19.00;16.00;;;;;10.28;100.00;102113.09;5041261;28;45433;-72
2023/04/08 05:40:08;;;;;;;;;18.75;17.25;;;;;10.31;100.00;102124.59;5027190;28;46738;-72
2023/04/08 05:42:33;;;;;;;;;18.00;18.00;;;;;10.35;100.00;102133.38;5023609;28;45474;-73
2023/04/08 05:44:59;;;;;;;;;17.50;16.00;;;;;10.44;100.00;102121.84;5024042;28;45280;-72
2023/04/08 05:47:24;;;;;;;;;24.25;19.75;;;;;10.49;100.00;102135.94;5027345;28;45691;-72
2023/04/08 05:49:50;;;;;;;;;19.25;17.25;;;;;10.66;100.00;102127.41;5053747;28;45613;-72
2023/04/08 05:52:15;;;;;;;;;18.75;17.00;;;;;10.64;100.00;102129.38;5022338;28;45838;-72
2023/04/08 05:54:44;;;;;;;;;25.50;19.50;;;;;10.79;100.00;102135.50;5044147;28;45379;-72
2023/04/08 05:57:10;;;;;;;;;18.50;16.00;;;;;10.82;100.00;102125.25;5035328;28;45716;-72
2023/04/08 05:59:35;;;;;;;;;14.00;13.75;;;;;10.95;100.00;102136.06;5043415;28;46094;-72
2023/04/08 06:02:01;;;;;;;;;17.75;17.75;;;;;11.05;100.00;102136.22;5045595;28;45619;-72
2023/04/08 06:04:26;;;;;;;;;24.50;18.25;;;;;11.16;100.00;102142.59;5043722;28;45563;-72
2023/04/08 06:06:51;;;;;;;;;21.00;18.00;;;;;11.15;100.00;102132.69;5041987;28;45397;-72
2023/04/08 06:09:17;;;;;;;;;20.50;18.00;;;;;11.14;100.00;102143.69;5016781;28;46915;-72
2023/04/08 06:11:42;;;;;;;;;18.50;17.75;;;;;11.22;100.00;102143.97;5035573;28;45543;-72
2023/04/08 06:14:07;;;;;;;;;21.75;16.75;;;;;11.47;100.00;102138.31;5026739;28;45351;-72
2023/04/08 06:16:33;;;;;;;;;16.50;16.25;;;;;11.61;100.00;102149.03;5024257;28;45604;-72
2023/04/08 06:18:59;;;;;;;;;14.00;13.50;;;;;11.56;100.00;102143.06;5045789;28;48034;-71
2023/04/08 06:21:25;;;;;;;;;19.00;17.50;;;;;11.62;100.00;102142.56;5040565;28;45337;-72
2023/04/08 06:23:50;;;;;;;;;23.50;18.75;;;;;11.62;100.00;102148.00;5029214;28;45569;-71
2023/04/08 06:26:15;;;;;;;;;21.75;18.75;;;;;11.72;100.00;102156.31;5044117;28;45430;-71
2023/04/08 06:28:41;;;;;;;;;17.25;17.25;;;;;11.85;100.00;102153.50;5054281;28;45460;-72
2023/04/08 06:31:06;;;;;;;;;18.25;16.00;;;;;11.53;100.00;102159.66;5026158;28;45621;-71
2023/04/08 06:33:31;;;;;;;;;15.25;14.75;;;;;11.45;100.00;102167.53;5036715;28;45347;-72
2023/04/08 06:36:02;;;;;;;;;24.00;19.00;;;;;11.77;100.00;102155.97;5046641;28;45239;-72
2023/04/08 06:38:28;;;;;;;;;20.25;17.00;;;;;11.75;100.00;102164.28;5032987;28;45333;-72
2023/04/08 06:40:53;;;;;;;;;25.50;20.75;;;;;11.69;100.00;102149.25;5028968;28;45993;-72
2023/04/08 06:43:18;;;;;;;;;20.00;18.50;;;;;11.82;100.00;102167.41;5045535;28;45301;-72
2023/04/08 06:45:44;;;;;;;;;24.75;15.50;;;;;12.01;100.00;102171.25;5044292;28;45361;-72
2023/04/08 06:48:09;;;;;;;;;25.00;21.00;;;;;12.04;100.00;102164.69;5045478;28;45365;-72
2023/04/08 06:50:34;;;;;;;;;21.00;16.75;;;;;11.97;100.00;102163.44;5028648;28;45371;-72
2023/04/08 06:53:00;;;;;;;;;32.00;22.25;;;;;12.17;100.00;102170.00;5045132;28;45240;-72
2023/04/08 06:55:25;;;;;;;;;28.75;22.75;;;;;12.21;100.00;102183.25;5047262;28;45176;-72
2023/04/08 06:57:51;;;;;;;;;16.75;15.75;;;;;11.96;100.00;102187.09;5033252;28;45244;-72
2023/04/08 07:00:16;;;;;;;;;17.75;16.25;;;;;12.38;100.00;102188.19;5042984;28;45410;-73
2023/04/08 07:02:42;;;;;;;;;23.25;21.25;;;;;12.23;100.00;102196.75;5024936;28;45406;-72
2023/04/08 07:05:07;;;;;;;;;18.00;15.25;;;;;12.20;100.00;102199.75;5021845;28;45580;-72
2023/04/08 07:07:33;;;;;;;;;19.75;15.75;;;;;12.21;100.00;102196.88;5039395;28;45565;-72
2023/04/08 07:09:58;;;;;;;;;22.00;17.75;;;;;12.14;100.00;102205.66;5042261;28;45185;-72
2023/04/08 07:12:23;;;;;;;;;24.50;19.50;;;;;12.18;100.00;102199.84;5041949;28;45549;-72
2023/04/08 07:14:48;;;;;;;;;22.00;20.00;;;;;12.34;100.00;102199.50;5045313;28;45424;-73
2023/04/08 07:17:14;;;;;;;;;18.25;15.75;;;;;12.53;100.00;102204.28;5039129;28;45463;-73
2023/04/08 07:19:40;;;;;;;;;22.25;17.50;;;;;12.57;100.00;102213.94;5027006;28;45609;-72
2023/04/08 07:22:06;;;;;;;;;18.50;15.00;;;;;12.59;100.00;102211.97;5045061;28;45392;-72
2023/04/08 07:24:31;;;;;;;;;16.50;16.25;;;;;12.81;100.00;102203.75;5025846;28;45642;-72
2023/04/08 07:26:57;;;;;;;;;20.75;16.00;;;;;12.98;100.00;102205.06;5046305;28;45548;-72
2023/04/08 07:29:22;;;;;;;;;24.25;21.25;;;;;12.82;100.00;102205.47;5025441;28;45438;-72
2023/04/08 07:31:47;;;;;;;;;22.00;18.25;;;;;12.67;100.00;102198.56;5028168;28;45675;-73
2023/04/08 07:34:13;;;;;;;;;24.50;19.50;;;;;12.58;100.00;102207.50;5050089;28;45421;-72
2023/04/08 07:36:39;;;;;;;;;13.25;11.00;;;;;12.81;100.00;102214.66;5043936;28;45334;-73
2023/04/08 07:39:05;;;;;;;;;25.25;22.00;;;;;12.75;100.00;102205.13;5046470;28;45744;-72
2023/04/08 07:41:30;;;;;;;;;28.25;23.00;;;;;12.84;100.00;102198.91;5045943;28;45449;-72
2023/04/08 07:43:55;;;;;;;;;21.25;18.75;;;;;12.88;100.00;102203.09;5047406;28;45172;-73
2023/04/08 07:46:21;;;;;;;;;20.00;18.25;;;;;13.01;100.00;102208.41;5021329;28;46797;-72
2023/04/08 07:48:46;;;;;;;;;29.75;24.75;;;;;13.39;100.00;102220.69;5045305;28;45466;-71
2023/04/08 07:51:12;;;;;;;;;22.00;21.50;;;;;13.47;100.00;102218.19;5043620;28;45928;-71
2023/04/08 07:53:39;;;;;;;;;20.00;18.50;;;;;13.56;100.00;102225.59;5031782;28;45487;-72
2023/04/08 07:56:10;;;;;;;;;18.50;15.75;;;;;13.40;100.00;102222.44;5030192;28;47251;-72
2023/04/08 07:58:35;;;;;;;;;26.50;26.00;;;;;13.46;100.00;102208.25;5036571;28;45561;-72
2023/04/08 08:01:01;;;;;;;;;25.25;22.00;;;;;13.57;100.00;102213.69;5045201;28;45391;-72
2023/04/08 08:03:26;;;;;;;;;23.50;20.50;;;;;13.59;100.00;102222.56;5025018;28;45559;-72
2023/04/08 08:05:51;;;;;;;;;25.25;21.25;;;;;13.94;100.00;102231.34;5046581;28;46060;-72
2023/04/08 08:08:17;;;;;;;;;18.00;18.00;;;;;14.10;100.00;102233.56;5044265;28;45299;-72
2023/04/08 08:10:42;;;;;;;;;24.75;20.75;;;;;14.38;100.00;102219.25;5021600;28;45449;-73
2023/04/08 08:13:08;;;;;;;;;17.50;17.25;;;;;14.88;100.00;102229.31;5043911;28;45420;-72
2023/04/08 08:15:33;;;;;;;;;22.25;17.00;;;;;15.11;100.00;102208.91;5030542;28;47581;-72
2023/04/08 08:17:59;;;;;;;;;26.25;23.50;;;;;15.43;100.00;102212.22;5037589;28;45414;-72
2023/04/08 08:20:24;;;;;;;;;22.50;21.00;;;;;15.51;100.00;102228.81;5034630;28;45531;-73
2023/04/08 08:22:50;;;;;;;;;22.25;20.00;;;;;15.16;100.00;102223.03;5027358;28;45359;-73
2023/04/08 08:25:16;;;;;;;;;25.75;24.00;;;;;15.31;100.00;102226.22;5028551;28;47331;-72
2023/04/08 08:27:41;;;;;;;;;22.25;20.00;;;;;15.34;100.00;102236.91;5043186;28;45374;-71
2023/04/08 08:30:08;;;;;;;;;23.75;22.25;;;;;15.91;100.00;102227.81;5053619;28;46646;-71
2023/04/08 08:32:34;;;;;;;;;21.25;17.25;;;;;16.43;100.00;102209.03;5026125;28;45620;-71
2023/04/08 08:35:00;;;;;;;;;22.50;16.75;;;;;16.67;100.00;102223.06;5056299;28;46351;-72
2023/04/08 08:37:25;;;;;;;;;24.00;23.75;;;;;16.23;100.00;102227.41;5045699;28;45445;-72
2023/04/08 08:39:50;;;;;;;;;18.67;17.00;;;;;16.82;100.00;102232.53;5048060;28;45474;-73
2023/04/08 08:42:23;;;;;;;;;26.25;23.75;;;;;17.30;100.00;102223.13;5041214;28;45667;-73
2023/04/08 08:44:49;;;;;;;;;22.50;18.75;;;;;17.33;100.00;102236.53;5023595;28;46897;-73
2023/04/08 08:47:15;;;;;;;;;21.25;17.75;;;;;17.73;100.00;102236.09;5039148;28;45510;-74
2023/04/08 08:49:40;;;;;;;;;16.33;16.33;;;;;18.08;99.13;102233.25;5025363;28;45354;-74
2023/04/08 08:52:06;;;;;;;;;21.00;17.00;;;;;18.00;97.02;102243.34;5033346;28;45466;-73
2023/04/08 08:54:31;;;;;;;;;24.00;20.00;;;;;17.35;nan;102237.25;5031341;28;46939;-73
2023/04/08 08:56:57;;;;;;;;;20.00;18.33;;;;;16.98;99.07;102227.25;5035465;28;45421;-73
2023/04/08 08:59:22;;;;;;;;;16.00;13.25;;;;;17.46;98.30;102237.84;5033634;28;45286;-74
2023/04/08 09:01:48;;;;;;;;;24.00;20.33;;;;;18.13;97.31;102230.00;5036227;28;45508;-74
2023/04/08 09:04:16;;;;;;;;;22.00;19.67;;;;;18.64;98.91;102215.38;5048663;28;46101;-73
2023/04/08 09:06:43;;;;;;;;;26.00;23.75;;;;;18.08;90.04;102229.66;5019952;28;45652;-74
2023/04/08 09:09:11;;;;;;;;;21.50;21.50;;;;;18.10;92.32;102225.72;5032850;28;45450;-74
2023/04/08 09:11:45;;;;;;;;;18.33;18.33;;;;;18.70;92.66;102228.50;5042874;28;45520;-73
2023/04/08 09:14:21;;;;;;;;;27.00;24.33;;;;;19.20;88.03;102230.38;5049793;28;45351;-72
2023/04/08 09:16:46;;;;;;;;;19.00;16.67;;;;;19.47;84.04;102232.00;5041608;28;45204;-73
2023/04/08 09:19:12;;;;;;;;;18.67;17.67;;;;;19.54;80.84;102222.88;5028823;28;45525;-72
2023/04/08 09:21:40;;;;;;;;;15.33;15.33;;;;;18.97;79.20;102227.38;5017786;28;45684;-73
2023/04/08 09:24:06;;;;;;;;;16.33;14.67;;;;;18.42;82.27;102227.78;5034945;28;45711;-73
2023/04/08 09:26:31;;;;;;;;;26.00;22.50;;;;;19.03;82.58;102226.72;5023703;28;45381;-72
2023/04/08 09:29:02;;;;;;;;;19.67;16.67;;;;;19.59;79.50;102225.97;5034795;28;45397;-73
2023/04/08 09:31:29;;;;;;;;;19.33;18.67;;;;;18.79;79.58;102232.13;5017356;28;45444;-73
2023/04/08 09:33:58;;;;;;;;;15.00;15.00;;;;;19.48;83.20;102233.72;5032156;28;45320;-73
2023/04/08 09:36:27;;;;;;;;;20.50;20.50;;;;;19.19;77.62;102229.50;5030564;28;45467;-73
2023/04/08 09:38:54;;;;;;;;;23.67;19.00;;;;;19.16;78.74;102229.84;5016613;28;45443;-73
2023/04/08 09:41:20;;;;;;;;;19.00;17.67;;;;;18.84;79.42;102207.72;5014089;28;45512;-74
2023/04/08 09:43:53;;;;;;;;;21.25;21.25;;;;;18.68;79.19;102222.28;5034255;28;45623;-73
2023/04/08 09:46:25;;;;;;;;;19.00;16.00;;;;;19.15;80.51;102238.25;5034447;28;45399;-73
2023/04/08 09:49:04;;;;;;;;;20.00;16.33;;;;;19.13;76.57;102235.69;5033284;28;45443;-73
2023/04/08 09:51:35;;;;;;;;;17.00;15.33;;;;;19.98;76.31;102223.38;5016989;28;45357;-73
2023/04/08 09:54:05;;;;;;;;;23.25;23.25;;;;;19.88;72.62;102235.63;5031939;28;46242;-73
2023/04/08 09:56:40;;;;;;;;;17.00;14.67;;;;;19.89;73.24;102231.81;5033747;28;45358;-73
2023/04/08 09:59:13;;;;;;;;;21.00;21.00;;;;;19.51;73.36;102236.13;5032415;28;45331;-73
2023/04/08 10:01:45;;;;;;;;;14.00;14.00;;;;;19.04;72.78;102240.31;5033628;28;45542;-72
2023/04/08 10:04:18;;;;;;;;;24.00;17.00;;;;;19.13;75.42;102243.09;5015596;28;47356;-74
2023/04/08 10:06:43;;;;;;;;;19.00;16.50;;;;;18.76;74.61;102233.34;5015214;28;46125;-73
2023/04/08 10:09:09;;;;;;;;;15.33;13.00;;;;;18.94;74.54;102230.47;5033277;28;45403;-74
2023/04/08 10:11:35;;;;;;;;;19.67;17.00;;;;;19.61;75.63;102232.19;5030672;28;45412;-74
2023/04/08 10:14:01;;;;;;;;;24.00;18.33;;;;;20.26;71.64;102228.50;5031570;28;48153;-74
2023/04/08 10:16:27;;;;;;;;;18.00;16.00;;;;;19.62;69.98;102225.63;5030064;28;45395;-74
2023/04/08 10:18:56;;;;;;;;;15.67;15.67;;;;;19.46;69.95;102231.09;5013225;28;45399;-74
2023/04/08 10:21:38;;;;;;;;;12.00;12.00;;;;;19.94;71.29;102227.53;5014099;28;45410;-72
2023/04/08 10:24:10;;;;;;;;;14.33;12.00;;;;;20.47;65.56;102232.44;5031510;28;45457;-73
2023/04/08 10:26:38;;;;;;;;;15.00;13.00;;;;;21.08;66.98;102236.31;5023058;28;45378;-73
2023/04/08 10:29:16;;;;;;;;;24.00;21.00;;;;;21.70;66.44;102231.59;5005428;28;45154;-73
2023/04/08 10:31:41;;;;;;;;;83.75;79.00;;;;;22.18;64.45;102232.25;5023670;28;45547;-74
2023/04/08 10:34:16;;;;;;;;;17.33;14.00;;;;;22.52;59.66;102221.47;5008924;28;45438;-72
2023/04/08 10:36:43;;;;;;;;;20.00;15.67;;;;;22.00;59.92;102209.56;5027832;28;45434;-72
2023/04/08 10:39:08;;;;;;;;;16.00;14.33;;;;;21.57;60.94;102212.00;5043113;28;45672;-72
2023/04/08 10:41:34;;;;;;;;;15.00;13.67;;;;;21.79;61.31;102204.72;5042236;28;45449;-72
2023/04/08 10:44:02;;;;;;;;;14.33;14.33;;;;;21.36;58.63;102206.28;5032708;28;45395;-73
2023/04/08 10:46:28;;;;;;;;;18.33;14.00;;;;;21.38;58.23;102209.75;5030726;28;45347;-72
2023/04/08 10:49:02;;;;;;;;;16.00;16.00;;;;;21.53;57.48;102198.75;5016473;28;45936;-71
2023/04/08 10:51:31;;;;;;;;;18.67;16.00;;;;;21.36;57.29;102200.75;5014233;28;45276;-73
2023/04/08 10:54:06;;;;;;;;;18.00;16.67;;;;;21.31;57.70;102192.16;5034190;28;46142;-73
2023/04/08 10:56:32;;;;;;;;;17.33;13.00;;;;;21.46;57.62;102195.84;5033541;28;45586;-73
2023/04/08 10:58:58;;;;;;;;;16.67;15.67;;;;;20.98;58.09;102202.53;5033298;28;45433;-73
2023/04/08 11:01:24;;;;;;;;;15.00;12.00;;;;;21.34;59.12;102189.00;5015932;28;45541;-74
2023/04/08 11:03:50;;;;;;;;;21.00;17.00;;;;;22.00;56.78;102190.19;5014043;28;48019;-74